25 | 01 | 2021

Daten Vortag

Klimadaten von 10m Höhe gemessen, Station 

Datum / Zeit Intervall min Luftfeuchte % Temperatur °C absolut Luftdruck hPa Wind m/s Windbö m/s Richtung Relative Luftdruck hPa Taupunkt °C Windchill °C Niederschlag mm
24-01-2021 00:15 5 87 1.4 994.1 2.5 3.6 SE 995.8 -0.5 1.4 0.0
24-01-2021 00:20 5 87 1.4 993.9 2.5 3.6 E 995.6 -0.5 1.4 0.0
24-01-2021 00:25 5 87 1.4 994.0 1.1 2.5 SE 995.7 -0.5 1.4 0.0
24-01-2021 00:30 5 87 1.4 994.1 2.5 5.0 SE 995.8 -0.5 1.4 0.0
24-01-2021 00:35 5 87 1.4 994.0 1.1 2.5 E 995.7 -0.5 1.4 0.0
24-01-2021 00:40 5 87 1.3 993.9 2.5 3.6 E 995.6 -0.6 1.3 0.0
24-01-2021 00:45 5 87 1.3 994.0 1.1 2.5 E 995.7 -0.6 1.3 0.0
24-01-2021 00:50 5 87 1.3 994.2 1.1 2.5 E 995.9 -0.6 1.3 0.0
24-01-2021 00:55 5 87 1.2 994.1 2.5 3.6 SE 995.8 -0.7 1.2 0.0
24-01-2021 01:00 5 87 1.2 993.9 0.0 1.1 SE 995.6 -0.7 1.2 0.0
24-01-2021 01:05 5 87 1.2 993.9 0.0 0.0 SE 995.6 -0.7 1.2 0.0
24-01-2021 01:10 5 87 1.1 994.0 0.0 0.0 SE 995.7 -0.8 1.1 0.0
24-01-2021 01:15 5 87 1.1 993.9 0.0 0.0 SE 995.6 -0.8 1.1 0.0
24-01-2021 01:20 5 86 1.0 994.0 0.0 0.0 SE 995.7 -1.1 1.0 0.0
24-01-2021 01:25 5 86 0.9 994.0 0.0 0.0 SE 995.7 -1.2 0.9 0.0
24-01-2021 01:30 5 86 0.9 993.9 0.0 0.0 SE 995.6 -1.2 0.9 0.0
24-01-2021 01:35 5 86 0.9 994.1 0.0 0.0 SE 995.8 -1.2 0.9 0.0
24-01-2021 01:40 5 86 0.8 994.1 0.0 0.0 SE 995.8 -1.3 0.8 0.0
24-01-2021 01:45 5 86 0.9 994.1 1.1 2.5 SE 995.8 -1.2 0.9 0.0
24-01-2021 01:50 5 86 0.9 994.1 1.1 1.1 SE 995.8 -1.2 0.9 0.0
24-01-2021 01:55 5 86 0.9 994.0 1.1 2.5 SE 995.7 -1.2 0.9 0.0
24-01-2021 02:00 5 86 0.9 994.2 1.1 2.5 SE 995.9 -1.2 0.9 0.0
24-01-2021 02:05 5 86 0.9 993.9 1.1 2.5 E 995.6 -1.2 0.9 0.0
24-01-2021 02:10 5 86 0.8 994.1 1.1 2.5 E 995.8 -1.3 0.8 0.0
24-01-2021 02:15 5 86 0.8 994.0 0.0 1.1 E 995.7 -1.3 0.8 0.0
24-01-2021 02:20 5 86 0.8 993.9 1.1 1.1 E 995.6 -1.3 0.8 0.0
24-01-2021 02:25 5 86 0.7 994.0 0.0 0.0 E 995.7 -1.4 0.7 0.0
24-01-2021 02:30 5 86 0.6 994.0 0.0 0.0 E 995.7 -1.5 0.6 0.0
24-01-2021 02:35 5 86 0.5 993.9 1.1 2.5 E 995.6 -1.6 0.5 0.0
24-01-2021 02:40 5 86 0.5 993.8 2.5 3.6 SE 995.5 -1.6 0.5 0.0
24-01-2021 02:45 5 86 0.5 994.2 3.6 5.0 S 995.9 -1.6 0.5 0.0
24-01-2021 02:50 5 86 0.5 994.1 2.5 3.6 S 995.8 -1.6 0.5 0.0
24-01-2021 02:55 5 86 0.5 994.2 2.5 3.6 S 995.9 -1.6 0.5 0.0
24-01-2021 03:00 5 86 0.4 994.1 0.0 2.5 S 995.8 -1.7 0.4 0.0
24-01-2021 03:05 5 86 0.3 994.3 0.0 0.0 SE 996.0 -1.8 0.3 0.0
24-01-2021 03:10 5 86 0.3 994.2 0.0 0.0 SE 995.9 -1.8 0.3 0.0
24-01-2021 03:15 5 86 0.3 994.4 0.0 0.0 SE 996.1 -1.8 0.3 0.0
24-01-2021 03:20 5 86 0.2 994.2 0.0 1.1 SE 995.9 -1.9 0.2 0.0
24-01-2021 03:25 5 86 0.1 994.2 0.0 0.0 SE 995.9 -2.0 0.1 0.0
24-01-2021 03:30 5 86 0.1 994.1 0.0 0.0 SE 995.8 -2.0 0.1 0.0
24-01-2021 03:35 5 86 0.1 994.3 0.0 0.0 SE 996.0 -2.0 0.1 0.0
24-01-2021 03:40 5 86 0.1 994.2 0.0 0.0 SE 995.9 -2.0 0.1 0.0
24-01-2021 03:45 5 86 0.1 994.4 0.0 0.0 SE 996.1 -2.0 0.1 0.0
24-01-2021 03:50 5 86 0.3 994.4 2.5 3.6 SE 996.1 -1.8 0.3 0.0
24-01-2021 03:55 5 86 0.5 994.3 1.1 2.5 SE 996.0 -1.6 0.5 0.0
24-01-2021 04:00 5 86 0.5 994.4 1.1 2.5 E 996.1 -1.6 0.5 0.0
24-01-2021 04:05 5 86 0.5 994.4 2.5 2.5 E 996.1 -1.6 0.5 0.0
24-01-2021 04:10 5 87 0.7 994.3 2.5 5.0 NNE 996.0 -1.2 0.7 0.0
24-01-2021 04:15 5 87 0.8 994.2 2.5 3.6 E 995.9 -1.1 0.8 0.0
24-01-2021 04:20 5 87 0.8 994.2 1.1 2.5 E 995.9 -1.1 0.8 0.0
24-01-2021 04:25 5 87 0.8 994.3 1.1 2.5 E 996.0 -1.1 0.8 0.0
24-01-2021 04:30 5 87 0.7 994.2 0.0 1.1 E 995.9 -1.2 0.7 0.0
24-01-2021 04:35 5 87 0.7 994.1 2.5 2.5 E 995.8 -1.2 0.7 0.0
24-01-2021 04:40 5 87 0.5 994.1 1.1 2.5 E 995.8 -1.4 0.5 0.0
24-01-2021 04:45 5 87 0.5 994.0 1.1 1.1 E 995.7 -1.4 0.5 0.0
24-01-2021 04:50 5 87 0.5 994.3 0.0 1.1 E 996.0 -1.4 0.5 0.0
24-01-2021 04:55 5 87 0.5 994.3 0.0 0.0 E 996.0 -1.4 0.5 0.0
24-01-2021 05:00 5 87 0.4 994.2 0.0 0.0 E 995.9 -1.5 0.4 0.0
24-01-2021 05:05 5 86 0.4 994.2 1.1 2.5 E 995.9 -1.7 0.4 0.0
24-01-2021 05:10 5 86 0.1 994.2 1.1 1.1 N 995.9 -2.0 0.1 0.0
24-01-2021 05:15 5 86 -0.1 994.1 0.0 0.0 N 995.8 -2.2 -0.1 0.0
24-01-2021 05:20 5 86 -0.3 994.2 1.1 2.5 N 995.9 -2.4 -0.3 0.0
24-01-2021 05:25 5 86 -0.5 994.3 2.5 3.6 NW 996.0 -2.6 -0.5 0.0
24-01-2021 05:30 5 86 -0.6 994.3 0.0 0.0 NW 996.0 -2.7 -0.6 0.0
24-01-2021 05:35 5 86 -0.8 994.1 0.0 0.0 NW 995.8 -2.8 -0.8 0.0
24-01-2021 05:40 5 85 -1.0 993.9 0.0 0.0 NW 995.6 -3.2 -1.0 0.0
24-01-2021 05:45 5 86 -1.0 994.1 0.0 0.0 NW 995.8 -3.0 -1.0 0.0
24-01-2021 05:50 5 86 -0.9 994.0 0.0 0.0 NW 995.7 -2.9 -0.9 0.0
24-01-2021 05:55 5 86 -0.6 994.1 1.1 2.5 NE 995.8 -2.7 -0.6 0.0
24-01-2021 06:00 5 86 -0.4 994.0 1.1 2.5 NE 995.7 -2.5 -0.4 0.0
24-01-2021 06:05 5 86 -0.4 993.9 1.1 2.5 NE 995.6 -2.5 -0.4 0.0
24-01-2021 06:10 5 86 -0.3 993.8 0.0 1.1 E 995.5 -2.4 -0.3 0.0
24-01-2021 06:15 5 86 -0.3 993.9 1.1 2.5 E 995.6 -2.4 -0.3 0.0
24-01-2021 06:20 5 86 -0.3 993.8 0.0 1.1 E 995.5 -2.4 -0.3 0.0
24-01-2021 06:25 5 86 -0.3 993.9 0.0 0.0 E 995.6 -2.4 -0.3 0.0
24-01-2021 06:30 5 86 -0.4 993.9 0.0 0.0 E 995.6 -2.5 -0.4 0.0
24-01-2021 06:35 5 86 -0.4 994.2 0.0 0.0 E 995.9 -2.5 -0.4 0.0
24-01-2021 06:40 5 86 -0.5 994.1 0.0 0.0 E 995.8 -2.6 -0.5 0.0
24-01-2021 06:45 5 86 -0.5 994.1 2.5 2.5 NW 995.8 -2.6 -0.5 0.0
24-01-2021 06:50 5 86 -0.5 994.0 0.0 1.1 NW 995.7 -2.6 -0.5 0.0
24-01-2021 06:55 5 86 -0.6 994.0 1.1 2.5 NW 995.7 -2.7 -0.6 0.0
24-01-2021 07:00 5 86 -0.6 994.1 0.0 0.0 NW 995.8 -2.7 -0.6 0.0
24-01-2021 07:05 5 86 -0.7 994.1 0.0 0.0 NW 995.8 -2.8 -0.7 0.0
24-01-2021 07:10 5 86 -0.9 994.2 0.0 1.1 NW 995.9 -2.9 -0.9 0.0
24-01-2021 07:15 5 86 -1.0 994.2 0.0 0.0 NW 995.9 -3.0 -1.0 0.0
24-01-2021 07:20 5 86 -1.0 994.1 0.0 0.0 NW 995.8 -3.0 -1.0 0.0
24-01-2021 07:25 5 86 -1.0 994.3 0.0 0.0 NW 996.0 -3.0 -1.0 0.0
24-01-2021 07:30 5 86 -1.0 994.3 0.0 0.0 NW 996.0 -3.0 -1.0 0.0
24-01-2021 07:35 5 86 -1.0 994.2 0.0 0.0 NW 995.9 -3.0 -1.0 0.0
24-01-2021 07:40 5 86 -0.9 994.3 0.0 0.0 NW 996.0 -2.9 -0.9 0.0
24-01-2021 07:45 5 86 -0.6 994.2 0.0 0.0 NW 995.9 -2.7 -0.6 0.0
24-01-2021 07:50 5 86 -0.6 994.0 0.0 0.0 NW 995.7 -2.7 -0.6 0.0
24-01-2021 07:55 5 86 -0.5 994.3 0.0 0.0 NW 996.0 -2.6 -0.5 0.0
24-01-2021 08:00 5 86 -0.6 994.4 0.0 1.1 NW 996.1 -2.7 -0.6 0.0
24-01-2021 08:05 5 86 -0.6 994.3 0.0 0.0 NW 996.0 -2.7 -0.6 0.0
24-01-2021 08:10 5 86 -0.7 994.5 0.0 0.0 NW 996.2 -2.8 -0.7 0.0
24-01-2021 08:15 5 86 -0.8 994.7 0.0 0.0 NW 996.4 -2.8 -0.8 0.0
24-01-2021 08:20 5 86 -0.8 994.5 0.0 0.0 NW 996.2 -2.8 -0.8 0.0
24-01-2021 08:25 5 86 -0.9 994.5 0.0 0.0 NW 996.2 -2.9 -0.9 0.0
24-01-2021 08:30 5 86 -0.9 994.5 0.0 0.0 NW 996.2 -2.9 -0.9 0.0
24-01-2021 08:35 5 86 -0.9 994.7 0.0 0.0 NW 996.4 -2.9 -0.9 0.0
24-01-2021 08:40 5 86 -0.9 994.7 0.0 0.0 NW 996.4 -2.9 -0.9 0.0
24-01-2021 08:45 5 86 -0.9 994.5 0.0 0.0 NW 996.2 -2.9 -0.9 0.0
24-01-2021 08:50 5 86 -0.9 994.6 0.0 0.0 NW 996.3 -2.9 -0.9 0.0
24-01-2021 08:55 5 86 -0.8 994.6 0.0 0.0 NW 996.3 -2.8 -0.8 0.0
24-01-2021 09:00 5 86 -0.7 994.8 0.0 0.0 NW 996.5 -2.8 -0.7 0.0
24-01-2021 09:05 5 86 -0.7 994.8 0.0 0.0 NW 996.5 -2.8 -0.7 0.0
24-01-2021 09:10 5 86 -0.5 994.9 0.0 0.0 NW 996.6 -2.6 -0.5 0.0
24-01-2021 09:15 5 86 -0.3 994.8 2.5 3.6 SE 996.5 -2.4 -0.3 0.0
24-01-2021 09:20 5 87 -0.2 995.0 0.0 0.0 SE 996.7 -2.1 -0.2 0.0
24-01-2021 09:25 5 87 -0.1 994.8 0.0 0.0 SE 996.5 -2.0 -0.1 0.0
24-01-2021 09:30 5 87 -0.1 994.9 0.0 0.0 SE 996.6 -2.0 -0.1 0.0
24-01-2021 09:35 5 87 0.0 994.9 0.0 0.0 SE 996.6 -1.9 0.0 0.0
24-01-2021 09:40 5 87 0.0 994.9 0.0 0.0 SE 996.6 -1.9 0.0 0.0
24-01-2021 09:45 5 87 0.0 995.1 0.0 0.0 SE 996.8 -1.9 0.0 0.0
24-01-2021 09:50 5 87 0.0 995.0 0.0 0.0 SE 996.7 -1.9 0.0 0.0
24-01-2021 09:55 5 87 0.1 994.9 0.0 0.0 SE 996.6 -1.8 0.1 0.0
24-01-2021 10:00 5 87 0.1 995.2 0.0 0.0 SE 996.9 -1.8 0.1 0.0
24-01-2021 10:05 5 87 0.2 995.1 0.0 0.0 SE 996.8 -1.7 0.2 0.0
24-01-2021 10:10 5 87 0.4 995.2 1.1 2.5 SE 996.9 -1.5 0.4 0.0
24-01-2021 10:15 5 87 0.5 995.1 0.0 0.0 SE 996.8 -1.4 0.5 0.0
24-01-2021 10:20 5 87 0.6 995.4 0.0 0.0 SE 997.1 -1.3 0.6 0.0
24-01-2021 10:25 5 87 0.7 995.4 1.1 2.5 SE 997.1 -1.2 0.7 0.0
24-01-2021 10:30 5 87 0.7 995.2 1.1 2.5 SE 996.9 -1.2 0.7 0.0
24-01-2021 10:35 5 87 0.8 995.3 1.1 2.5 SE 997.0 -1.1 0.8 0.0
24-01-2021 10:40 5 88 0.8 995.3 1.1 2.5 SE 997.0 -1.0 0.8 0.0
24-01-2021 10:45 5 88 0.8 995.4 1.1 2.5 SE 997.1 -1.0 0.8 0.0
24-01-2021 10:50 5 88 0.9 995.3 0.0 0.0 SE 997.0 -0.9 0.9 0.0
24-01-2021 10:55 5 88 0.9 995.3 0.0 0.0 SE 997.0 -0.9 0.9 0.0
24-01-2021 11:00 5 88 0.9 995.4 0.0 0.0 SE 997.1 -0.9 0.9 0.0
24-01-2021 11:05 5 88 0.9 995.5 0.0 0.0 SE 997.2 -0.9 0.9 0.0
24-01-2021 11:10 5 88 0.9 995.4 0.0 0.0 SE 997.1 -0.9 0.9 0.0
24-01-2021 11:15 5 88 1.0 995.6 0.0 0.0 SE 997.3 -0.8 1.0 0.0
24-01-2021 11:20 5 88 1.0 995.6 0.0 0.0 SE 997.3 -0.8 1.0 0.0
24-01-2021 11:25 5 88 1.0 995.6 0.0 1.1 SE 997.3 -0.8 1.0 0.0
24-01-2021 11:30 5 88 1.0 995.7 1.1 2.5 SE 997.4 -0.8 1.0 0.0
24-01-2021 11:35 5 88 1.0 995.7 2.5 3.6 SW 997.4 -0.8 1.0 0.0
24-01-2021 11:40 5 88 1.0 995.6 2.5 2.5 S 997.3 -0.8 1.0 0.0
24-01-2021 11:45 5 88 1.1 995.8 2.5 3.6 S 997.5 -0.7 1.1 0.0
24-01-2021 11:50 5 88 1.1 995.8 1.1 2.5 SW 997.5 -0.7 1.1 0.0
24-01-2021 11:55 5 88 1.1 995.8 2.5 3.6 SW 997.5 -0.7 1.1 0.3
24-01-2021 12:00 5 88 1.1 995.7 1.1 2.5 SW 997.4 -0.7 1.1 0.3
24-01-2021 12:05 5 88 1.1 995.6 1.1 2.5 SWW 997.3 -0.7 1.1 0.3
24-01-2021 12:10 5 88 1.1 995.9 1.1 2.5 SWW 997.6 -0.7 1.1 0.3
24-01-2021 12:15 5 88 1.1 995.7 2.5 3.6 W 997.4 -0.7 1.1 0.3
24-01-2021 12:20 5 88 1.1 995.8 2.5 3.6 W 997.5 -0.7 1.1 0.3
24-01-2021 12:25 5 88 1.2 995.8 1.1 2.5 W 997.5 -0.6 1.2 0.6
24-01-2021 12:30 5 88 1.2 995.8 1.1 2.5 W 997.5 -0.6 1.2 0.6
24-01-2021 12:35 5 88 1.3 995.8 1.1 2.5 W 997.5 -0.5 1.3 0.6
24-01-2021 12:40 5 88 1.3 995.7 1.1 1.1 W 997.4 -0.5 1.3 0.6
24-01-2021 12:45 5 88 1.3 995.8 0.0 0.0 W 997.5 -0.5 1.3 0.6
24-01-2021 12:50 5 88 1.4 995.7 0.0 1.1 W 997.4 -0.4 1.4 0.9
24-01-2021 12:55 5 88 1.5 996.0 1.1 2.5 W 997.7 -0.3 1.5 0.9
24-01-2021 13:00 5 88 1.5 996.1 1.1 2.5 W 997.8 -0.3 1.5 0.6
24-01-2021 13:05 5 88 1.6 995.9 1.1 2.5 SW 997.6 -0.2 1.6 0.6
24-01-2021 13:10 5 88 1.7 995.9 1.1 3.6 W 997.6 -0.1 1.7 0.6
24-01-2021 13:15 5 89 1.7 995.9 3.6 5.0 W 997.6 0.1 1.7 0.6
24-01-2021 13:20 5 88 1.7 995.8 6.1 6.1 W 997.5 -0.1 1.7 0.9
24-01-2021 13:25 5 88 1.7 996.0 5.0 6.1 W 997.7 -0.1 1.7 0.9
24-01-2021 13:30 5 88 1.7 995.8 3.6 5.0 W 997.5 -0.1 1.7 0.6
24-01-2021 13:35 5 88 1.6 995.8 5.0 6.1 W 997.5 -0.2 1.6 0.6
24-01-2021 13:40 5 88 1.6 995.9 5.0 6.1 W 997.6 -0.2 1.6 0.6
24-01-2021 13:45 5 88 1.5 996.1 5.0 6.1 W 997.8 -0.3 1.5 0.6
24-01-2021 13:50 5 88 1.5 995.9 5.0 6.1 W 997.6 -0.3 1.5 0.6
24-01-2021 13:55 5 88 1.5 995.8 5.0 6.1 W 997.5 -0.3 1.5 0.6
24-01-2021 14:00 5 88 1.4 995.8 3.6 5.0 W 997.5 -0.4 1.4 0.6
24-01-2021 14:05 5 88 1.4 995.9 3.6 6.1 W 997.6 -0.4 1.4 0.6
24-01-2021 14:10 5 88 1.4 995.8 3.6 5.0 W 997.5 -0.4 1.4 0.6
24-01-2021 14:15 5 88 1.4 996.1 3.6 6.1 W 997.8 -0.4 1.4 0.9
24-01-2021 14:20 5 88 1.4 995.8 3.6 5.0 W 997.5 -0.4 1.4 0.6
24-01-2021 14:25 5 88 1.4 995.8 3.6 5.0 W 997.5 -0.4 1.4 0.6
24-01-2021 14:30 5 88 1.4 996.2 3.6 5.0 W 997.9 -0.4 1.4 0.6
24-01-2021 14:35 5 88 1.4 995.9 2.5 3.6 W 997.6 -0.4 1.4 0.6
24-01-2021 14:40 5 88 1.4 996.0 2.5 3.6 W 997.7 -0.4 1.4 0.6
24-01-2021 14:45 5 88 1.4 996.1 1.1 2.5 W 997.8 -0.4 1.4 0.6
24-01-2021 14:50 5 88 1.5 996.0 1.1 2.5 W 997.7 -0.3 1.5 0.3
24-01-2021 14:55 5 88 1.5 996.0 1.1 2.5 W 997.7 -0.3 1.5 0.3
24-01-2021 15:00 5 88 1.5 996.3 1.1 2.5 W 998.0 -0.3 1.5 0.3
24-01-2021 15:05 5 88 1.5 996.0 1.1 2.5 W 997.7 -0.3 1.5 0.3
24-01-2021 15:10 5 88 1.6 996.0 0.0 0.0 W 997.7 -0.2 1.6 0.6
24-01-2021 15:15 5 88 1.6 996.0 0.0 0.0 W 997.7 -0.2 1.6 0.3
24-01-2021 15:20 5 88 1.6 996.1 0.0 1.1 W 997.8 -0.2 1.6 0.3
24-01-2021 15:25 5 88 1.7 996.2 0.0 1.1 W 997.9 -0.1 1.7 0.3
24-01-2021 15:30 5 88 1.7 996.4 0.0 0.0 W 998.1 -0.1 1.7 0.3
24-01-2021 15:35 5 88 1.7 996.2 1.1 1.1 W 997.9 -0.1 1.7 0.3
24-01-2021 15:40 5 88 1.7 996.1 0.0 1.1 W 997.8 -0.1 1.7 0.3
24-01-2021 15:45 5 88 1.6 996.4 1.1 2.5 W 998.1 -0.2 1.6 0.3
24-01-2021 15:50 5 88 1.6 996.3 0.0 1.1 SW 998.0 -0.2 1.6 0.3
24-01-2021 15:55 5 88 1.6 996.3 1.1 2.5 SW 998.0 -0.2 1.6 0.3
24-01-2021 16:00 5 88 1.6 996.4 0.0 1.1 SW 998.1 -0.2 1.6 0.3
24-01-2021 16:05 5 88 1.6 996.4 1.1 2.5 SW 998.1 -0.2 1.6 0.3
24-01-2021 16:10 5 88 1.5 996.3 0.0 1.1 SW 998.0 -0.3 1.5 0.0
24-01-2021 16:15 5 88 1.5 996.4 1.1 2.5 SW 998.1 -0.3 1.5 0.0
24-01-2021 16:20 5 88 1.5 996.4 0.0 1.1 SW 998.1 -0.3 1.5 0.0
24-01-2021 16:25 5 88 1.5 996.6 1.1 1.1 SW 998.3 -0.3 1.5 0.3
24-01-2021 16:30 5 88 1.5 996.5 1.1 2.5 SW 998.2 -0.3 1.5 0.3
24-01-2021 16:35 5 88 1.4 996.5 1.1 2.5 SW 998.2 -0.4 1.4 0.3
24-01-2021 16:40 5 88 1.4 996.5 1.1 2.5 SW 998.2 -0.4 1.4 0.3
24-01-2021 16:45 5 88 1.4 996.5 1.1 2.5 SW 998.2 -0.4 1.4 0.3
24-01-2021 16:50 5 88 1.4 996.6 0.0 1.1 SW 998.3 -0.4 1.4 0.3
24-01-2021 16:55 5 88 1.3 996.6 0.0 0.0 SW 998.3 -0.5 1.3 0.3
24-01-2021 17:00 5 88 1.3 996.5 0.0 1.1 SW 998.2 -0.5 1.3 0.3
24-01-2021 17:05 5 88 1.3 996.5 0.0 1.1 SW 998.2 -0.5 1.3 0.3
24-01-2021 17:10 5 88 1.3 996.4 0.0 0.0 SW 998.1 -0.5 1.3 0.3
24-01-2021 17:15 5 88 1.2 996.5 0.0 0.0 SW 998.2 -0.6 1.2 0.3
24-01-2021 17:20 5 88 1.2 996.6 0.0 1.1 SW 998.3 -0.6 1.2 0.3
24-01-2021 17:25 5 88 1.2 996.4 0.0 0.0 SW 998.1 -0.6 1.2 0.0
24-01-2021 17:30 5 88 1.2 996.5 1.1 2.5 SW 998.2 -0.6 1.2 0.0
24-01-2021 17:35 5 88 1.2 996.6 1.1 2.5 SW 998.3 -0.6 1.2 0.0
24-01-2021 17:40 5 88 1.1 996.5 0.0 1.1 SW 998.2 -0.7 1.1 0.0
24-01-2021 17:45 5 88 1.1 996.4 0.0 0.0 SW 998.1 -0.7 1.1 0.0
24-01-2021 17:50 5 88 1.1 996.6 0.0 0.0 SW 998.3 -0.7 1.1 0.0
24-01-2021 17:55 5 88 1.1 996.5 0.0 0.0 SW 998.2 -0.7 1.1 0.0
24-01-2021 18:00 5 88 1.1 996.6 0.0 0.0 SW 998.3 -0.7 1.1 0.0
24-01-2021 18:05 5 88 1.0 996.4 0.0 0.0 SW 998.1 -0.8 1.0 0.0
24-01-2021 18:10 5 88 1.0 996.4 0.0 0.0 SW 998.1 -0.8 1.0 0.0
24-01-2021 18:15 5 88 1.0 996.4 0.0 0.0 SW 998.1 -0.8 1.0 0.0
24-01-2021 18:20 5 88 1.0 996.5 0.0 1.1 SW 998.2 -0.8 1.0 0.0
24-01-2021 18:25 5 88 1.0 996.6 1.1 2.5 SW 998.3 -0.8 1.0 0.0
24-01-2021 18:30 5 88 1.1 996.6 1.1 1.1 SW 998.3 -0.7 1.1 0.0
24-01-2021 18:35 5 88 1.1 996.6 1.1 2.5 SW 998.3 -0.7 1.1 0.0
24-01-2021 18:40 5 88 1.0 996.5 1.1 2.5 SW 998.2 -0.8 1.0 0.0
24-01-2021 18:45 5 88 1.0 996.6 2.5 3.6 SE 998.3 -0.8 1.0 0.0
24-01-2021 18:50 5 88 1.0 996.6 2.5 3.6 SE 998.3 -0.8 1.0 0.0
24-01-2021 18:55 5 88 1.0 996.5 1.1 2.5 SE 998.2 -0.8 1.0 0.0
24-01-2021 19:00 5 88 1.0 996.6 1.1 2.5 SE 998.3 -0.8 1.0 0.0
24-01-2021 19:05 5 88 0.9 996.5 1.1 2.5 SE 998.2 -0.9 0.9 0.0
24-01-2021 19:10 5 88 0.9 996.6 2.5 3.6 S 998.3 -0.9 0.9 0.0
24-01-2021 19:15 5 88 0.9 996.5 1.1 2.5 SE 998.2 -0.9 0.9 0.0
24-01-2021 19:20 5 88 0.9 996.5 1.1 2.5 E 998.2 -0.9 0.9 0.0
24-01-2021 19:25 5 88 0.9 996.6 1.1 2.5 E 998.3 -0.9 0.9 0.0
24-01-2021 19:30 5 88 0.9 996.6 1.1 2.5 SE 998.3 -0.9 0.9 0.0
24-01-2021 19:35 5 88 0.9 996.3 1.1 3.6 SE 998.0 -0.9 0.9 0.0
24-01-2021 19:40 5 88 0.9 996.5 1.1 2.5 SE 998.2 -0.9 0.9 0.0
24-01-2021 19:45 5 88 0.9 996.3 2.5 3.6 SE 998.0 -0.9 0.9 0.0
24-01-2021 19:50 5 88 0.9 996.6 2.5 3.6 SE 998.3 -0.9 0.9 0.0
24-01-2021 19:55 5 88 0.9 996.4 1.1 2.5 SE 998.1 -0.9 0.9 0.0
24-01-2021 20:00 5 88 0.9 996.4 1.1 2.5 SE 998.1 -0.9 0.9 0.0
24-01-2021 20:05 5 88 0.9 996.5 1.1 2.5 SE 998.2 -0.9 0.9 0.0
24-01-2021 20:10 5 88 0.9 996.7 1.1 2.5 SE 998.4 -0.9 0.9 0.0
24-01-2021 20:15 5 88 0.9 996.6 0.0 1.1 SE 998.3 -0.9 0.9 0.0
24-01-2021 20:20 5 88 0.9 996.5 2.5 3.6 SE 998.2 -0.9 0.9 0.0
24-01-2021 20:25 5 88 0.9 996.5 1.1 2.5 SE 998.2 -0.9 0.9 0.0
24-01-2021 20:30 5 88 0.9 996.6 1.1 1.1 SE 998.3 -0.9 0.9 0.0
24-01-2021 20:35 5 88 0.9 996.2 0.0 0.0 SE 997.9 -0.9 0.9 0.0
24-01-2021 20:40 5 88 0.9 996.4 0.0 0.0 SE 998.1 -0.9 0.9 0.0
24-01-2021 20:45 5 88 0.9 996.6 0.0 0.0 SE 998.3 -0.9 0.9 0.0
24-01-2021 20:50 5 88 0.9 996.2 0.0 1.1 SE 997.9 -0.9 0.9 0.0
24-01-2021 20:55 5 88 0.9 996.3 1.1 2.5 SW 998.0 -0.9 0.9 0.0
24-01-2021 21:00 5 88 1.0 996.4 0.0 1.1 SW 998.1 -0.8 1.0 0.0
24-01-2021 21:05 5 88 1.1 996.4 1.1 2.5 SW 998.1 -0.7 1.1 0.0
24-01-2021 21:10 5 88 1.1 996.4 2.5 2.5 SW 998.1 -0.7 1.1 0.0
24-01-2021 21:15 5 88 1.2 996.5 1.1 2.5 SW 998.2 -0.6 1.2 0.0
24-01-2021 21:20 5 88 1.2 996.5 2.5 3.6 SSW 998.2 -0.6 1.2 0.0
24-01-2021 21:25 5 88 1.3 996.5 1.1 2.5 SW 998.2 -0.5 1.3 0.0
24-01-2021 21:30 5 88 1.3 996.4 2.5 3.6 SW 998.1 -0.5 1.3 0.0
24-01-2021 21:35 5 88 1.3 996.5 1.1 3.6 SW 998.2 -0.5 1.3 0.0
24-01-2021 21:40 5 88 1.3 996.3 2.5 5.0 SW 998.0 -0.5 1.3 0.0
24-01-2021 21:45 5 88 1.3 996.5 1.1 2.5 SW 998.2 -0.5 1.3 0.0
24-01-2021 21:50 5 88 1.3 996.6 2.5 3.6 SSW 998.3 -0.5 1.3 0.0
24-01-2021 21:55 5 88 1.3 996.6 3.6 5.0 S 998.3 -0.5 1.3 0.0
24-01-2021 22:00 5 88 1.2 996.6 3.6 5.0 SW 998.3 -0.6 1.2 0.0
24-01-2021 22:05 5 88 1.2 996.6 3.6 5.0 S 998.3 -0.6 1.2 0.0
24-01-2021 22:10 5 88 1.2 996.3 2.5 3.6 S 998.0 -0.6 1.2 0.0
24-01-2021 22:15 5 88 1.2 996.5 2.5 3.6 S 998.2 -0.6 1.2 0.0
24-01-2021 22:20 5 88 1.1 996.5 1.1 2.5 S 998.2 -0.7 1.1 0.0
24-01-2021 22:25 5 88 1.1 996.5 0.0 1.1 S 998.2 -0.7 1.1 0.0
24-01-2021 22:30 5 88 1.0 996.3 0.0 1.1 S 998.0 -0.8 1.0 0.0
24-01-2021 22:35 5 88 1.0 996.4 0.0 1.1 S 998.1 -0.8 1.0 0.0
24-01-2021 22:40 5 88 1.0 996.5 0.0 1.1 S 998.2 -0.8 1.0 0.0
24-01-2021 22:45 5 88 1.0 996.4 0.0 1.1 S 998.1 -0.8 1.0 0.0
24-01-2021 22:50 5 88 1.0 996.5 0.0 1.1 S 998.2 -0.8 1.0 0.0
24-01-2021 22:55 5 88 0.9 996.6 0.0 1.1 S 998.3 -0.9 0.9 0.0
24-01-2021 23:00 5 88 1.0 996.5 0.0 1.1 S 998.2 -0.8 1.0 0.0
24-01-2021 23:05 5 88 1.0 996.3 0.0 1.1 S 998.0 -0.8 1.0 0.0
24-01-2021 23:10 5 88 0.9 996.5 1.1 2.5 S 998.2 -0.9 0.9 0.0
24-01-2021 23:15 5 88 0.9 996.5 1.1 2.5 SE 998.2 -0.9 0.9 0.0
24-01-2021 23:20 5 88 1.0 996.6 1.1 2.5 SE 998.3 -0.8 1.0 0.0
24-01-2021 23:25 5 88 1.0 996.5 0.0 2.5 SE 998.2 -0.8 1.0 0.0
24-01-2021 23:30 5 88 1.0 996.6 0.0 0.0 SE 998.3 -0.8 1.0 0.0
24-01-2021 23:35 5 88 1.0 996.8 0.0 0.0 SE 998.5 -0.8 1.0 0.0
24-01-2021 23:40 5 88 1.0 996.6 0.0 0.0 SE 998.3 -0.8 1.0 0.0
24-01-2021 23:45 5 88 1.0 996.6 0.0 0.0 SE 998.3 -0.8 1.0 0.0
24-01-2021 23:50 5 88 1.0 996.6 0.0 0.0 SE 998.3 -0.8 1.0 0.0
24-01-2021 23:55 5 88 1.0 996.9 1.1 2.5 SE 998.6 -0.8 1.0 0.0

 

  Tagesdaten                                                                         Tabelle: 07 UHR

STATIONHÖHELUFTD.TEMP.T-MinT-MaxU%RR1RR12SSSDDFFFXWetter+WolkenBöen
UFS TW Ems 0 ------ --- --- --- --- ---- --- --- -- --- --- --- ---
UFS Deutsche Bucht 0 ------ --- --- --- --- ---- --- --- -- --- --- --- ---
Helgoland 4 993.9 3.6 3.6 6.2 93 0.0 0 0 S 21 28 Dunst oder flacher Nebel ---
List/Sylt 26 993.6 3.3 3.3 5.5 96 0.0 0 0 -- --- --- Dunst oder flacher Nebel ---
Schleswig 43 995.4 0.1 0.1 4.6 98 0.0 0 0 S 8 17 Dunst oder flacher Nebel ---
Leuchtturm Kiel 5 995.6 2.0 1.8 5.4 91 ---- --- --- SW 31 35 --- ---
Kiel 27 995.6 1.0 0.9 5.4 95 0.0 0 0 SW 7 18 Dunst oder flacher Nebel ---
Fehmarn 3 996.1 1.5 1.3 5.0 94 0.0 0 0 S 11 17 --- ---
Arkona 42 997.0 0.2 -0.1 3.6 95 0.0 0 0 SW 19 26 --- ---
Norderney 11 993.5 1.5 1.1 4.8 92 0.0 0 0 S 20 31 Dunst oder flacher Nebel ---
Leuchtt. Alte Weser 32 994.3 2.4 2.4 5.3 98 ---- --- --- S 32 --- --- ---
Cuxhaven 5 995.2 1.0 0.8 5.2 95 0.0 0 0 S 9 18 Dunst oder flacher Nebel ---
Hamburg-Flh. 11 996.6 0.4 -0.1 4.2 96 0.0 0 0 SO 8 9 Dunst oder flacher Nebel ---
Schwerin 59 997.0 0.2 -0.1 3.0 95 0.0 0 0 S 11 15 --- ---
Rostock 4 996.8 1.3 1.3 4.3 88 0.0 0 0 S 7 14 --- ---
Greifswald 2 997.0 0.9 0.7 4.7 89 0.0 0 0 S 5 10 --- ---
Emden 0 993.9 0.8 -0.1 4.9 96 0.0 0 0 SO 17 22 Dunst oder flacher Nebel ---
Bremen-Flh. 5 996.1 0.7 -0.8 3.8 94 0.0 0 0 SO 13 18 bedeckt ---
Lüchow 17 997.4 -0.4 -0.7 3.3 97 0.0 0 0 SW 2 7 Dunst oder flacher Nebel ---
Marnitz 81 997.2 -0.2 -0.4 3.9 96 0.0 0 0 SW 3 6 Dunst oder flacher Nebel ---
Waren 70 997.3 -0.3 -0.5 4.2 97 0.0 0 0 SO 3 7 Dunst oder flacher Nebel ---
Neuruppin 38 997.3 -0.5 -1.1 3.3 98 0.0 0 0 NW 4 6 --- ---
Angermünde 56 997.7 0.1 -0.4 4.3 98 0.0 0 0 SO 3 9 --- ---
Münster/Osnabr.-Flh. 48 996.2 1.1 -1.5 3.9 91 0.0 0 0 SO 10 21 gering bewölkt ---
Hannover-Flh. 59 997.2 0.6 -0.4 3.3 89 0.0 0 0 S 6 8 stark bewölkt ---
Magdeburg 76 998.1 1.1 0.5 2.5 94 0.0 0 0 S 4 5 --- ---
Potsdam 81 997.3 1.2 0.6 3.0 91 0.0 0 0 - 0 5 --- ---
Berlin-Tegel 37 997.4 0.8 0.4 3.5 94 0.0 0 0 N 3 5 bedeckt ---
Berlin-Tempelhof 48 997.2 2.2 1.1 5.4 86 0.0 0 --- O 3 12 --- ---
Berlin-Dahlem 51 997.2 1.9 0.4 4.4 --- ---- 0 0 O 4 --- bedeckt ---
Lindenberg 91 996.6 3.2 2.2 4.9 79 0.0 0 0 NO 9 21 leichter Regen ---
Düsseldorf-Flh. 45 996.6 2.1 -1.1 2.6 89 0.0 0 0 S 19 30 Regen ---
Essen 150 996.8 2.0 0.5 4.2 85 0.0 0 0 S 12 26 leichter Regen ---
Kahler Asten 839 ------ -2.6 -2.8 -1.2 92 0.0 0 27 SW 21 26 --- ---
Bad Lippspringe 157 997.8 1.1 -0.6 1.7 88 0.0 0 0 S 5 10 --- ---
Fritzlar 174 999.1 1.3 -0.2 2.7 96 ---- 0 --- S 7 --- --- ---
Brocken 1142 ------ -3.2 -5.2 -0.7 80 ---- --- --- W 9 19 leichter Schneefall ---
Leipzig-Flh. 142 997.7 0.7 0.7 3.3 96 1.9 4 0 N 14 24 Schneefall ---
Dresden-Flh. 227 993.9 1.8 1.8 4.4 94 1.5 5 0 N 24 36 leichter Regen ---
Cottbus 69 995.8 3.3 3.2 5.4 87 0.0 0 0 N 9 21 --- ---
Görlitz 238 993.7 2.6 2.4 6.7 93 0.4 2 0 NO 17 26 Regen ---
Aachen 231 996.8 3.1 1.5 3.2 85 0.0 0 0 SW 23 32 --- ---
Nürburg 485 998.1 0.6 -0.4 0.8 96 0.0 0 0 S 8 21 --- ---
Köln/Bonn-Flh. 92 997.9 1.3 -0.4 3.1 88 0.0 0 0 SO 11 15 stark bewölkt ---
Gießen/Wettenberg 203 999.5 0.5 0.4 2.7 98 0.0 0 0 SW 5 9 Nebel ---
Wasserkuppe 921 ------ -2.6 -2.6 -1.1 96 1.0 5 39 NW 10 24 leichter Schneefall ---
Meiningen 450 999.3 0.0 -0.1 1.7 100 0.1 2 2 NW 13 23 leichter Schneefall ---
Erfurt 316 999.0 0.2 0.1 2.3 98 0.5 4 2 W 11 16 leichter Schneefall ---
Gera 311 997.2 0.1 0.1 1.8 100 1.9 3 1 NW 12 29 Schneefall ---
Fichtelberg 1213 ------ -3.6 -3.6 2.0 97 3.1 8 50 N 26 36 Schneefall ---
Trier 265 998.9 3.2 1.9 3.5 92 0.0 0 0 SW 18 32 --- ---
Hahn-Flh. 497 999.2 0.1 -0.6 1.8 97 0.0 0 0 SW 9 17 --- ---
Frankfurt/M-Flh. 112 999.8 1.2 1.1 3.5 96 0.0 0 0 S 9 23 bedeckt ---
OF-Wetterpark 119 999.8 2.1 1.3 3.2 93 0.0 0 0 -- 5 13 --- ---
Würzburg 268 1000.4 1.2 0.7 3.5 94 0.3 10 1 N 10 26 leichter Schneefall ---
Bamberg 239 998.4 0.5 0.3 4.5 97 1.3 7 1 NW 11 27 Schneefall ---
Hof 567 996.3 -0.4 -0.4 1.3 95 2.3 5 6 NW 18 32 Schneefall ---
Weiden 438 995.5 0.1 0.0 5.8 98 1.7 9 4 W 9 16 Schneefall ---
Saarbrücken-Flh. 320 1000.5 1.8 1.0 2.6 96 0.0 0 0 S 14 22 Dunst oder flacher Nebel ---
Karlsruhe-Rheinst. 116 1001.2 2.9 1.5 3.9 90 0.0 10 0 SW 10 24 --- ---
Mannheim 96 1000.6 2.5 2.5 4.7 96 0.0 1 0 S 11 20 --- ---
Stuttgart-Flh. 371 1001.9 1.1 0.1 4.2 92 0.0 7 0 S 10 15 Schneeregen ---
Öhringen 276 1001.3 1.0 0.0 4.2 99 0.1 11 3 W 7 15 leichter Regen ---
Nürnberg-Flh. 314 998.2 0.4 0.1 4.6 99 0.5 6 3 NW 21 35 leichter Schneefall ---
Regensburg 366 996.3 0.7 0.7 7.0 96 0.4 3 2 W 20 32 leichter Schneefall ---
Straubing 351 996.4 1.3 1.3 5.9 90 0.0 0 4 W 27 47 leichter Schneefall ---
Großer Arber 1436 ------ -3.5 -3.5 4.3 98 0.4 0 97 SW 44 55 leichter Schneefall Windböen
Lahr 155 1002.2 2.5 0.3 4.2 91 0.0 13 0 S 14 24 --- ---
Freudenstadt 797 ------ -1.4 -2.0 1.9 98 0.0 7 23 SW 10 21 Glatteisbildung ---
Stötten 734 1002.2 -1.6 -1.8 3.0 98 1.9 13 16 W 28 46 Schneefall ---
Augsburg 462 1000.9 0.6 0.0 5.9 95 0.3 7 1 W 26 44 leichter Schneefall ---
München-Flh. 444 999.1 0.7 0.6 5.1 93 0.1 1 0 W 45 60 Schneefall Windböen
Fürstenzell 476 997.5 0.2 0.2 7.2 98 1.0 1 15 SW 25 47 Schneefall ---
Feldberg/Schw. 1486 ------ -5.2 -6.0 1.5 96 0.1 6 133 SW 31 44 gefrierender Nebel ---
Konstanz 443 1003.4 1.4 0.5 5.3 91 0.0 12 6 W 9 25 --- ---
Kempten 705 1002.9 -0.5 -0.5 2.2 96 0.5 7 27 W 10 24 leichter Schneefall ---
Oberstdorf 806 ------ 0.1 -0.3 4.5 82 0.2 4 43 N 9 21 leichter Schneefall ---
Zugspitze 2960 ------ -15.0 -15.0 -6.7 86 ---- --- 243 W 39 76 Schneefall Sturmböen
Hohenpeißenberg 977 ------ -2.2 -2.2 8.9 98 0.1 3 16 W 28 60 leichter Schneefall Windböen

                                                                                                               Tabelle: 19 UHR  

STATIONHÖHELUFTD.TEMP.T-MinT-MaxU%RR1RR12SSSDDFFFXWetter+WolkenBöen
UFS TW Ems 0 ------ --- --- --- --- ---- --- --- -- --- --- --- ---
UFS Deutsche Bucht 26 ------ --- --- --- --- ---- --- --- -- --- --- --- ---
Helgoland 4 992.9 4.3 2.6 4.9 82 0.1 1 0 SW 21 38 leichter Regen ---
List/Sylt 26 991.1 3.3 2.2 3.8 89 0.0 1 0 -- --- ---   ---
Schleswig 43 993.4 3.4 0.0 3.9 85 0.0 0 0 S 9 21 --- ---
Leuchtturm Kiel 5 994.0 3.7 1.3 4.2 82 ---- --- --- S 20 27 --- ---
Kiel 27 993.9 4.3 0.9 4.4 75 0.0 0 0 SW 13 20 --- ---
Fehmarn 3 994.5 2.7 0.9 4.3 92 0.0 0 0 S 12 17   ---
Arkona 42 995.3 1.1 0.0 2.5 94 0.0 0 0 S 12 17 --- ---
Norderney 11 993.2 3.9 1.4 4.6 82 0.0 2 0 SW 14 26 --- ---
Leuchtt. Alte Weser 32 993.3 3.7 2.2 4.6 90 ---- --- --- SW 22 --- --- ---
Cuxhaven 5 993.7 3.8 0.7 4.5 79 0.0 0 0 SW 12 22 --- ---
Hamburg-Flh 11 994.6 4.3 0.1 5.2 78 0.0 0 0 S 12 22 bedeckt ---
Schwerin 59 995.3 1.8 -0.1 4.1 90 0.0 0 0 S 8 15 --- ---
Rostock 4 995.3 1.5 0.9 3.7 91 0.0 0 0 S 9 15 --- ---
Greifswald 2 995.6 0.6 -0.3 2.6 96 0.0 0 0 S 6 9 --- ---
Emden 0 993.7 2.6 0.8 4.6 89 0.0 1 0 S 8 14 --- ---
Bremen-Flh. 5 994.6 3.3 0.2 5.3 88 0.0 0 0 S 8 13 stark bewölkt ---
Lüchow 17 995.9 0.1 -0.5 5.3 94 0.0 0 0 S 3 7 --- ---
Marnitz 81 996.0 0.4 -0.3 3.6 99 0.0 0 0 SW 9 13 Dunst oder flacher Nebel ---
Waren 70 996.0 0.3 -0.5 2.0 96 0.0 0 0 SW 7 12 Dunst oder flacher Nebel ---
Neuruppin 38 996.5 -0.2 -0.8 2.5 98 0.0 0 0 SW 3 5 --- ---
Angermünde 56 996.5 0.7 -0.2 2.3 100 0.0 5 0 SW 7 10 Dunst oder flacher Nebel ---
Münster/Osnabr.-Flh. 48 994.1 3.0 0.9 5.8 89 0.0 0 0 O 4 8 stark bewölkt ---
Hannover-Flh. 59 995.4 3.7 0.5 5.6 81 0.0 0 0 S 10 17 stark bewölkt ---
Magdeburg 76 996.7 1.1 0.8 5.9 88 0.0 0 0 SW 7 11 --- ---
Potsdam 81 997.0 1.2 0.9 2.5 99 0.0 4 0 S 15 21 Dunst oder flacher Nebel ---
Berlin-Tegel 37 996.8 2.0 0.4 2.7 95 0.0 4 0 S 6 8 stark bewölkt ---
Berlin-Tempelhof 48 997.0 2.6 1.1 3.3 93 0.0 5 --- SW 8 12 --- ---
Berlin-Dahlem 51 997.0 2.2 0.7 2.7 --- ---- 5 0 SW 11 --- Dunst oder flacher Nebel ---
Lindenberg 91 997.3 0.5 0.3 3.2 97 0.0 6 0 SW 6 11 Dunst oder flacher Nebel ---
Düsseldorf-Flh. 45 993.3 3.8 1.8 7.2 80 0.0 0 0 NO 8 11 stark bewölkt ---
Essen 150 993.5 4.4 1.9 6.2 76 0.0 0 0 O 6 11 --- ---
Kahler Asten 839 ------ -1.4 -3.1 -1.2 98 0.6 1 28 S 22 31 gefrierender Nebel ---
Bad Lippspringe 157 995.2 3.2 0.9 5.8 82 0.0 0 0 SO 8 19 --- ---
Fritzlar 174 995.7 1.8 0.3 3.6 94 ---- 0 --- - 4 --- --- ---
Brocken 1142 ------ -3.9 -4.6 -2.9 97 ---- --- --- SW 37 45 gefrierender Nebel ---
Leipzig-Flh. 142 997.6 1.1 0.0 1.8 95 0.0 6 1 S 14 21 stark bewölkt ---
Dresden-Flh. 227 998.4 0.4 -0.1 1.7 97 0.0 13 11 S 5 8 Schneefall ---
Cottbus 69 997.4 0.6 0.3 3.3 99 0.0 8 0 S 4 12 --- ---
Görlitz 238 998.6 0.2 0.0 2.6 94 0.0 10 2 W 6 17 --- ---
Aachen 231 992.9 2.1 2.1 5.6 84 0.0 0 0 O 7 13 --- ---
Nürburg 485 993.2 1.3 0.6 2.9 94 0.0 0 0 O 9 18 Regen ---
Köln/Bonn-Flh. 92 993.6 4.4 1.1 7.8 78 0.0 0 0 SO 10 15 gering bewölkt ---
Gießen/Wettenberg 203 995.2 3.1 0.3 4.2 90 0.0 0 0 O 8 21 --- ---
Wasserkuppe 921 ------ -2.5 -3.5 -1.4 97 0.0 1 39 SO 26 32 Schneegriesel ---
Meiningen 450 997.3 -0.2 -0.2 1.2 98 0.0 0 1 SO 8 18 Glatteisbildung ---
Erfurt 316 997.3 0.2 0.2 3.3 88 0.0 1 0 S 17 22 gering bewölkt ---
Gera 311 998.0 -0.5 -1.7 1.0 96 0.0 6 4 S 12 14 --- ---
Fichtelberg 1213 ------ -4.8 -5.0 -3.6 96 0.0 9 67 W 12 19 gefrierender Nebel ---
Trier 265 992.9 2.1 2.1 4.5 94 0.4 2 0 S 2 19 leichter Regen ---
Hahn-Flh. 497 993.3 0.7 -0.8 3.2 97 0.2 1 0 SO 18 26 Schneefall ---
Frankfurt/M-Flh. 112 995.0 4.2 0.9 4.9 83 0.0 0 0 O 6 14 leichter Regen ---
OF-Wetterpark 119 995.0 3.9 0.2 5.1 83 0.0 0 0 SO 10 17 --- ---
Würzburg 268 996.7 1.9 0.7 4.0 92 0.0 0 0 SO 20 28 --- ---
Bamberg 239 997.5 0.5 0.1 2.4 98 0.0 2 0 S 4 12 Dunst oder flacher Nebel ---
Hof 567 998.4 -0.7 -1.1 0.9 85 0.0 2 6 S 8 18 --- ---
Weiden 438 998.9 0.1 -0.1 1.4 97 0.0 2 5 SO 4 5 Dunst oder flacher Nebel ---
Saarbrücken-Flh. 320 993.3 2.4 1.8 4.2 94 0.5 3 0 SO 12 35 Schneeregen ---
Karlsruhe-Rheinst. 116 994.6 3.6 2.6 6.8 89 0.9 1 0 O 8 19 Regen ---
Mannheim 96 994.5 4.5 1.9 5.7 81 0.0 0 0 SO 15 29 --- ---
Stuttgart-Flh. 371 995.7 2.2 0.9 4.3 81 0.0 0 0 SO 10 18 Regen ---
Öhringen 276 995.6 2.5 1.0 4.5 86 0.0 0 0 O 5 14 --- ---
Nürnberg-Flh. 314 997.8 0.1 0.0 2.7 96 0.0 1 0 O 13 17 bewölkt ---
Regensburg 366 998.6 0.7 0.6 3.9 92 0.0 0 0 O 5 9 --- ---
Straubing 351 999.2 0.1 -0.1 2.5 93 0.0 0 2 O 7 10 --- ---
Großer Arber 1436 ------ -6.0 -6.0 -3.5 97 0.0 2 98 W 11 19 Schneegriesel ---
Lahr 155 994.6 4.5 2.5 7.0 85 0.5 1 0 SW 10 21 Regen ---
Freudenstadt 797 ------ -0.8 -1.5 0.9 97 0.1 0 23 S 12 26 Glatteisbildung ---
Stötten 734 997.3 -1.5 -2.4 -0.1 95 0.0 0 15 SO 9 18 Dunst oder flacher Nebel ---
Augsburg 462 997.2 0.6 -0.4 3.0 91 0.0 0 0 SO 15 20 --- ---
München-Flh. 444 997.8 1.4 0.5 3.4 86 0.0 0 0 O 14 17 bedeckt ---
Fürstenzell 476 999.4 0.1 0.1 1.2 92 0.0 3 17 O 5 8 Schneefall ---
Feldberg/Schw. 1486 ------ -4.3 -5.6 -4.3 96 0.5 1 126 S 46 59 kräftiger Schneefall Windböen
Konstanz 443 997.0 1.3 0.9 5.0 88 0.0 0 5 NW 5 14 --- ---
Kempten 705 997.5 -1.5 -1.9 2.6 96 0.0 0 25 - 0 8 --- ---
Oberstdorf 806 ------ -3.9 -4.5 2.0 90 0.0 0 41 S 3 12 --- ---
Zugspitze 2960 ------ -14.8 -17.0 -13.7 57 ---- --- --- SW 22 44 --- ---
Hohenpeißenberg 977 ------ -1.3 -2.4 0.3 80 0.0 0 16 O 15 31 --- ---

   

  • Wetterzustand
  • Windrichtung und -geschwindigkeit
  • Luftdruck
  • relative Luftfeuchtigkeit
  • Sichtweite
  • Gesamtbedeckungsgrad
  • Niederschlag
  • Sonnenscheindauer

 Höhe:     m über NN
Luftd.:   auf Meereshöhe reduzierter Luftdruck in hPa
TEMP.:   Lufttemperatur in Grad Celsius
T-MIN:   Minimumtemperatur der Luft in 2m Höhe in Grad Celsius, von 18 UTC Vortag bis 06 UTC heute
T-MAX:  Maximumtemperatur der Luft in 2m Höhe in Grad Celsius, von 18 UTC Vortag bis 06 UTC heute
RR1:     Niederschlagsmenge, einstündig, mm ist gleich Liter pro
RR12:   Niederschlagsmenge, 12 stündig, 18 UTC Vortag bis 06 UTC heute in mm ist gleich Liter pro
SSS:     Gesamtschneehöhe
DD:      Windrichtung
FF:       Windgeschwindigkeit letztes 10-Minutenmittel in km/h
FX:       höchste Windspitze während der letzten Stunde in km/h
---:      Wert nicht vorhanden

 

2009-2021

Unwetterwarnungen

 

  Radarbild           

aktueller Radarfilm Deutschland

  Europa-Meteoalarm